sensor_id;sensor_type;location;lat;lon;timestamp;pressure;altitude;pressure_sealevel;temperature;humidity
74633;BME280;63139;52.018;8.552;2022-12-18T00:01:23;101867.34;;;-7.86;80.38
74633;BME280;63139;52.018;8.552;2022-12-18T00:03:52;101869.06;;;-7.88;79.87
74633;BME280;63139;52.018;8.552;2022-12-18T00:06:21;101864.78;;;-7.90;79.90
74633;BME280;63139;52.018;8.552;2022-12-18T00:08:51;101858.84;;;-7.94;79.83
74633;BME280;63139;52.018;8.552;2022-12-18T00:11:19;101868.28;;;-7.94;79.74
74633;BME280;63139;52.018;8.552;2022-12-18T00:13:48;101858.00;;;-7.96;80.42
74633;BME280;63139;52.018;8.552;2022-12-18T00:16:17;101858.88;;;-7.97;80.75
74633;BME280;63139;52.018;8.552;2022-12-18T00:18:46;101861.47;;;-7.98;80.68
74633;BME280;63139;52.018;8.552;2022-12-18T00:21:14;101856.34;;;-8.00;80.66
74633;BME280;63139;52.018;8.552;2022-12-18T00:23:43;101862.38;;;-8.01;80.26
74633;BME280;63139;52.018;8.552;2022-12-18T00:26:15;101865.78;;;-8.02;80.66
74633;BME280;63139;52.018;8.552;2022-12-18T00:28:44;101874.38;;;-8.03;80.80
74633;BME280;63139;52.018;8.552;2022-12-18T00:31:13;101879.50;;;-8.03;80.99
74633;BME280;63139;52.018;8.552;2022-12-18T00:33:41;101870.94;;;-8.03;81.13
74633;BME280;63139;52.018;8.552;2022-12-18T00:36:12;101870.09;;;-8.04;81.16
74633;BME280;63139;52.018;8.552;2022-12-18T00:38:40;101869.22;;;-8.03;81.31
74633;BME280;63139;52.018;8.552;2022-12-18T00:41:09;101864.09;;;-8.04;80.97
74633;BME280;63139;52.018;8.552;2022-12-18T00:43:39;101868.41;;;-8.06;80.79
74633;BME280;63139;52.018;8.552;2022-12-18T00:46:07;101869.25;;;-8.07;80.37
74633;BME280;63139;52.018;8.552;2022-12-18T00:48:35;101869.28;;;-8.09;80.35
74633;BME280;63139;52.018;8.552;2022-12-18T00:51:02;101861.59;;;-8.10;80.20
74633;BME280;63139;52.018;8.552;2022-12-18T00:53:30;101859.03;;;-8.12;80.65
74633;BME280;63139;52.018;8.552;2022-12-18T00:55:58;101864.19;;;-8.13;80.54
74633;BME280;63139;52.018;8.552;2022-12-18T00:58:25;101872.78;;;-8.16;80.44
74633;BME280;63139;52.018;8.552;2022-12-18T01:00:55;101868.50;;;-8.15;80.94
74633;BME280;63139;52.018;8.552;2022-12-18T01:03:22;101858.25;;;-8.17;80.97
74633;BME280;63139;52.018;8.552;2022-12-18T01:05:50;101857.41;;;-8.17;80.55
74633;BME280;63139;52.018;8.552;2022-12-18T01:08:18;101853.97;;;-8.19;80.24
74633;BME280;63139;52.018;8.552;2022-12-18T01:10:46;101853.97;;;-8.19;80.23
74633;BME280;63139;52.018;8.552;2022-12-18T01:13:14;101867.69;;;-8.20;80.56
74633;BME280;63139;52.018;8.552;2022-12-18T01:15:47;101864.25;;;-8.21;80.75
74633;BME280;63139;52.018;8.552;2022-12-18T01:18:17;101858.28;;;-8.22;80.21
74633;BME280;63139;52.018;8.552;2022-12-18T01:20:45;101860.88;;;-8.23;79.98
74633;BME280;63139;52.018;8.552;2022-12-18T01:23:12;101859.19;;;-8.26;80.04
74633;BME280;63139;52.018;8.552;2022-12-18T01:25:40;101856.63;;;-8.27;80.28
74633;BME280;63139;52.018;8.552;2022-12-18T01:28:09;101855.78;;;-8.26;80.06
74633;BME280;63139;52.018;8.552;2022-12-18T01:30:37;101850.66;;;-8.29;79.69
74633;BME280;63139;52.018;8.552;2022-12-18T01:33:05;101859.25;;;-8.30;79.84
74633;BME280;63139;52.018;8.552;2022-12-18T01:35:41;101867.00;;;-8.32;79.75
74633;BME280;63139;52.018;8.552;2022-12-18T01:38:09;101857.59;;;-8.33;79.89
74633;BME280;63139;52.018;8.552;2022-12-18T01:40:37;101855.88;;;-8.34;79.40
74633;BME280;63139;52.018;8.552;2022-12-18T01:43:05;101862.72;;;-8.36;79.25
74633;BME280;63139;52.018;8.552;2022-12-18T01:45:32;101867.06;;;-8.38;79.25
74633;BME280;63139;52.018;8.552;2022-12-18T01:48:02;101877.34;;;-8.39;79.92
74633;BME280;63139;52.018;8.552;2022-12-18T01:50:32;101872.19;;;-8.41;80.39
74633;BME280;63139;52.018;8.552;2022-12-18T01:53:07;101870.50;;;-8.40;80.36
74633;BME280;63139;52.018;8.552;2022-12-18T01:55:38;101869.63;;;-8.41;79.79
74633;BME280;63139;52.018;8.552;2022-12-18T01:58:09;101869.66;;;-8.44;79.85
74633;BME280;63139;52.018;8.552;2022-12-18T02:00:37;101864.53;;;-8.44;79.92
74633;BME280;63139;52.018;8.552;2022-12-18T02:03:04;101861.13;;;-8.46;79.66
74633;BME280;63139;52.018;8.552;2022-12-18T02:05:38;101866.28;;;-8.46;79.58
74633;BME280;63139;52.018;8.552;2022-12-18T02:08:13;101873.13;;;-8.46;79.71
74633;BME280;63139;52.018;8.552;2022-12-18T02:10:49;101873.13;;;-8.48;80.08
74633;BME280;63139;52.018;8.552;2022-12-18T02:13:27;101868.84;;;-8.47;80.05
74633;BME280;63139;52.018;8.552;2022-12-18T02:16:02;101868.84;;;-8.47;79.73
74633;BME280;63139;52.018;8.552;2022-12-18T02:18:36;101866.28;;;-8.49;80.18
74633;BME280;63139;52.018;8.552;2022-12-18T02:21:09;101864.56;;;-8.50;79.74
74633;BME280;63139;52.018;8.552;2022-12-18T02:23:47;101873.13;;;-8.49;80.14
74633;BME280;63139;52.018;8.552;2022-12-18T02:26:24;101871.44;;;-8.50;79.36
74633;BME280;63139;52.018;8.552;2022-12-18T02:28:57;101875.72;;;-8.51;79.32
74633;BME280;63139;52.018;8.552;2022-12-18T02:31:31;101866.34;;;-8.53;79.42
74633;BME280;63139;52.018;8.552;2022-12-18T02:34:04;101867.19;;;-8.54;78.92
74633;BME280;63139;52.018;8.552;2022-12-18T02:36:39;101862.94;;;-8.55;79.29
74633;BME280;63139;52.018;8.552;2022-12-18T02:39:10;101854.38;;;-8.57;79.61
74633;BME280;63139;52.018;8.552;2022-12-18T02:41:47;101844.13;;;-8.59;79.32
74633;BME280;63139;52.018;8.552;2022-12-18T02:44:16;101851.00;;;-8.61;78.73
74633;BME280;63139;52.018;8.552;2022-12-18T02:46:45;101854.44;;;-8.62;79.37
74633;BME280;63139;52.018;8.552;2022-12-18T02:49:24;101851.88;;;-8.64;79.28
74633;BME280;63139;52.018;8.552;2022-12-18T02:52:02;101857.84;;;-8.61;79.61
74633;BME280;63139;52.018;8.552;2022-12-18T02:54:43;101851.88;;;-8.64;79.29
74633;BME280;63139;52.018;8.552;2022-12-18T02:57:19;101857.84;;;-8.63;79.36
74633;BME280;63139;52.018;8.552;2022-12-18T02:59:56;101860.44;;;-8.63;79.64
74633;BME280;63139;52.018;8.552;2022-12-18T03:02:32;101862.97;;;-8.61;79.78
74633;BME280;63139;52.018;8.552;2022-12-18T03:05:04;101862.13;;;-8.64;79.49
74633;BME280;63139;52.018;8.552;2022-12-18T03:07:38;101874.97;;;-8.64;79.40
74633;BME280;63139;52.018;8.552;2022-12-18T03:10:13;101868.13;;;-8.65;79.28
74633;BME280;63139;52.018;8.552;2022-12-18T03:12:47;101871.59;;;-8.67;79.35
74633;BME280;63139;52.018;8.552;2022-12-18T03:15:21;101864.72;;;-8.67;79.63
74633;BME280;63139;52.018;8.552;2022-12-18T03:18:01;101865.59;;;-8.68;79.91
74633;BME280;63139;52.018;8.552;2022-12-18T03:20:32;101861.31;;;-8.67;80.14
74633;BME280;63139;52.018;8.552;2022-12-18T03:23:06;101857.88;;;-8.66;80.87
74633;BME280;63139;52.018;8.552;2022-12-18T03:25:37;101857.00;;;-8.65;80.39
74633;BME280;63139;52.018;8.552;2022-12-18T03:28:12;101862.16;;;-8.65;79.47
74633;BME280;63139;52.018;8.552;2022-12-18T03:30:43;101869.00;;;-8.66;78.95
74633;BME280;63139;52.018;8.552;2022-12-18T03:33:16;101859.59;;;-8.67;78.82
74633;BME280;63139;52.018;8.552;2022-12-18T03:35:48;101866.47;;;-8.69;78.44
74633;BME280;63139;52.018;8.552;2022-12-18T03:38:17;101873.31;;;-8.69;78.06
74633;BME280;63139;52.018;8.552;2022-12-18T03:40:54;101869.03;;;-8.72;78.42
74633;BME280;63139;52.018;8.552;2022-12-18T03:43:34;101867.34;;;-8.74;78.69
74633;BME280;63139;52.018;8.552;2022-12-18T03:46:07;101876.78;;;-8.76;78.57
74633;BME280;63139;52.018;8.552;2022-12-18T03:48:38;101880.22;;;-8.76;78.70
74633;BME280;63139;52.018;8.552;2022-12-18T03:51:16;101878.50;;;-8.77;78.76
74633;BME280;63139;52.018;8.552;2022-12-18T03:53:53;101878.50;;;-8.78;78.59
74633;BME280;63139;52.018;8.552;2022-12-18T03:56:31;101870.81;;;-8.80;78.79
74633;BME280;63139;52.018;8.552;2022-12-18T03:59:03;101870.81;;;-8.78;78.84
74633;BME280;63139;52.018;8.552;2022-12-18T04:01:34;101869.09;;;-8.79;78.62
74633;BME280;63139;52.018;8.552;2022-12-18T04:04:04;101856.28;;;-8.78;78.96
74633;BME280;63139;52.018;8.552;2022-12-18T04:06:37;101851.16;;;-8.81;78.28
74633;BME280;63139;52.018;8.552;2022-12-18T04:09:08;101853.72;;;-8.81;78.69
74633;BME280;63139;52.018;8.552;2022-12-18T04:11:39;101851.16;;;-8.81;78.92
74633;BME280;63139;52.018;8.552;2022-12-18T04:14:09;101864.81;;;-8.79;78.54
74633;BME280;63139;52.018;8.552;2022-12-18T04:16:43;101865.69;;;-8.78;78.32
74633;BME280;63139;52.018;8.552;2022-12-18T04:19:14;101870.81;;;-8.78;78.63
74633;BME280;63139;52.018;8.552;2022-12-18T04:21:44;101865.69;;;-8.81;78.60
74633;BME280;63139;52.018;8.552;2022-12-18T04:24:13;101870.81;;;-8.80;78.90
74633;BME280;63139;52.018;8.552;2022-12-18T04:26:49;101868.25;;;-8.80;79.03
74633;BME280;63139;52.018;8.552;2022-12-18T04:29:24;101870.81;;;-8.81;79.11
74633;BME280;63139;52.018;8.552;2022-12-18T04:31:52;101873.38;;;-8.80;79.27
74633;BME280;63139;52.018;8.552;2022-12-18T04:34:22;101869.09;;;-8.79;79.23
74633;BME280;63139;52.018;8.552;2022-12-18T04:36:52;101882.78;;;-8.77;79.07
74633;BME280;63139;52.018;8.552;2022-12-18T04:39:21;101881.06;;;-8.78;78.87
74633;BME280;63139;52.018;8.552;2022-12-18T04:41:53;101883.63;;;-8.77;78.84
74633;BME280;63139;52.018;8.552;2022-12-18T04:44:20;101884.50;;;-8.76;79.01
74633;BME280;63139;52.018;8.552;2022-12-18T04:46:50;101887.06;;;-8.76;78.89
74633;BME280;63139;52.018;8.552;2022-12-18T04:49:18;101883.63;;;-8.77;78.87
74633;BME280;63139;52.018;8.552;2022-12-18T04:51:46;101883.63;;;-8.77;79.01
74633;BME280;63139;52.018;8.552;2022-12-18T04:54:14;101870.81;;;-8.80;78.72
74633;BME280;63139;52.018;8.552;2022-12-18T04:56:42;101884.50;;;-8.78;78.69
74633;BME280;63139;52.018;8.552;2022-12-18T04:59:09;101887.06;;;-8.78;78.70
74633;BME280;63139;52.018;8.552;2022-12-18T05:01:37;101880.22;;;-8.77;78.49
74633;BME280;63139;52.018;8.552;2022-12-18T05:04:06;101871.66;;;-8.78;78.73
74633;BME280;63139;52.018;8.552;2022-12-18T05:06:34;101869.94;;;-8.77;78.59
74633;BME280;63139;52.018;8.552;2022-12-18T05:09:02;101871.66;;;-8.79;78.19
74633;BME280;63139;52.018;8.552;2022-12-18T05:11:31;101870.81;;;-8.80;78.37
74633;BME280;63139;52.018;8.552;2022-12-18T05:13:59;101870.81;;;-8.80;78.45
74633;BME280;63139;52.018;8.552;2022-12-18T05:16:26;101864.00;;;-8.82;78.58
74633;BME280;63139;52.018;8.552;2022-12-18T05:18:54;101858.88;;;-8.84;78.56
74633;BME280;63139;52.018;8.552;2022-12-18T05:21:23;101850.34;;;-8.83;78.66
74633;BME280;63139;52.018;8.552;2022-12-18T05:23:51;101844.34;;;-8.82;78.95
74633;BME280;63139;52.018;8.552;2022-12-18T05:26:19;101852.88;;;-8.81;78.48
74633;BME280;63139;52.018;8.552;2022-12-18T05:28:46;101852.03;;;-8.82;78.27
74633;BME280;63139;52.018;8.552;2022-12-18T05:31:14;101848.63;;;-8.82;78.00
74633;BME280;63139;52.018;8.552;2022-12-18T05:33:42;101852.91;;;-8.84;78.46
74633;BME280;63139;52.018;8.552;2022-12-18T05:36:10;101858.03;;;-8.84;78.43
74633;BME280;63139;52.018;8.552;2022-12-18T05:38:39;101864.88;;;-8.86;78.79
74633;BME280;63139;52.018;8.552;2022-12-18T05:41:07;101859.75;;;-8.88;78.80
74633;BME280;63139;52.018;8.552;2022-12-18T05:43:36;101860.63;;;-8.89;78.63
74633;BME280;63139;52.018;8.552;2022-12-18T05:46:07;101858.94;;;-8.90;78.86
74633;BME280;63139;52.018;8.552;2022-12-18T05:48:35;101857.22;;;-8.89;79.79
74633;BME280;63139;52.018;8.552;2022-12-18T05:51:04;101856.34;;;-8.88;79.69
74633;BME280;63139;52.018;8.552;2022-12-18T05:53:34;101858.06;;;-8.89;79.39
74633;BME280;63139;52.018;8.552;2022-12-18T05:56:06;101862.38;;;-8.89;78.98
74633;BME280;63139;52.018;8.552;2022-12-18T05:58:35;101862.38;;;-8.89;78.65
74633;BME280;63139;52.018;8.552;2022-12-18T06:01:07;101865.78;;;-8.90;78.35
74633;BME280;63139;52.018;8.552;2022-12-18T06:03:36;101864.06;;;-8.90;78.58
74633;BME280;63139;52.018;8.552;2022-12-18T06:06:11;101866.66;;;-8.91;78.92
74633;BME280;63139;52.018;8.552;2022-12-18T06:08:39;101863.22;;;-8.92;78.79
74633;BME280;63139;52.018;8.552;2022-12-18T06:11:16;101856.38;;;-8.91;78.71
74633;BME280;63139;52.018;8.552;2022-12-18T06:13:44;101859.78;;;-8.89;78.63
74633;BME280;63139;52.018;8.552;2022-12-18T06:16:12;101866.63;;;-8.90;79.01
74633;BME280;63139;52.018;8.552;2022-12-18T06:18:40;101863.22;;;-8.90;78.59
74633;BME280;63139;52.018;8.552;2022-12-18T06:21:07;101870.06;;;-8.91;77.95
74633;BME280;63139;52.018;8.552;2022-12-18T06:23:35;101870.06;;;-8.89;77.85
74633;BME280;63139;52.018;8.552;2022-12-18T06:26:05;101883.75;;;-8.90;78.03
74633;BME280;63139;52.018;8.552;2022-12-18T06:28:34;101886.31;;;-8.90;77.97
74633;BME280;63139;52.018;8.552;2022-12-18T06:31:02;101893.16;;;-8.92;78.26
74633;BME280;63139;52.018;8.552;2022-12-18T06:33:31;101898.28;;;-8.91;78.81
74633;BME280;63139;52.018;8.552;2022-12-18T06:36:00;101891.44;;;-8.90;78.73
74633;BME280;63139;52.018;8.552;2022-12-18T06:38:27;101896.56;;;-8.90;78.75
74633;BME280;63139;52.018;8.552;2022-12-18T06:40:55;101908.53;;;-8.91;79.23
74633;BME280;63139;52.018;8.552;2022-12-18T06:43:23;101913.66;;;-8.89;79.53
74633;BME280;63139;52.018;8.552;2022-12-18T06:45:58;101904.22;;;-8.87;79.49
74633;BME280;63139;52.018;8.552;2022-12-18T06:48:26;101908.50;;;-8.86;79.40
74633;BME280;63139;52.018;8.552;2022-12-18T06:50:54;101895.66;;;-8.86;78.90
74633;BME280;63139;52.018;8.552;2022-12-18T06:53:22;101900.78;;;-8.88;78.71
74633;BME280;63139;52.018;8.552;2022-12-18T06:55:50;101901.66;;;-8.87;79.05
74633;BME280;63139;52.018;8.552;2022-12-18T06:58:18;101899.94;;;-8.87;79.19
74633;BME280;63139;52.018;8.552;2022-12-18T07:00:45;101901.66;;;-8.86;78.98
74633;BME280;63139;52.018;8.552;2022-12-18T07:03:14;101904.22;;;-8.86;78.44
74633;BME280;63139;52.018;8.552;2022-12-18T07:05:42;101902.50;;;-8.84;78.88
74633;BME280;63139;52.018;8.552;2022-12-18T07:08:10;101902.50;;;-8.84;78.78
74633;BME280;63139;52.018;8.552;2022-12-18T07:10:41;101906.78;;;-8.84;78.70
74633;BME280;63139;52.018;8.552;2022-12-18T07:13:13;101911.06;;;-8.85;79.05
74633;BME280;63139;52.018;8.552;2022-12-18T07:15:41;101913.59;;;-8.83;78.73
74633;BME280;63139;52.018;8.552;2022-12-18T07:18:09;101910.19;;;-8.84;77.97
74633;BME280;63139;52.018;8.552;2022-12-18T07:20:38;101905.91;;;-8.85;78.16
74633;BME280;63139;52.018;8.552;2022-12-18T07:23:06;101899.94;;;-8.85;78.06
74633;BME280;63139;52.018;8.552;2022-12-18T07:25:35;101899.94;;;-8.85;78.26
74633;BME280;63139;52.018;8.552;2022-12-18T07:28:03;101905.91;;;-8.85;78.62
74633;BME280;63139;52.018;8.552;2022-12-18T07:30:31;101899.94;;;-8.84;78.77
74633;BME280;63139;52.018;8.552;2022-12-18T07:32:59;101902.50;;;-8.84;78.88
74633;BME280;63139;52.018;8.552;2022-12-18T07:35:26;101902.44;;;-8.81;78.84
74633;BME280;63139;52.018;8.552;2022-12-18T07:37:56;101905.88;;;-8.80;78.79
74633;BME280;63139;52.018;8.552;2022-12-18T07:40:23;101906.72;;;-8.78;78.99
74633;BME280;63139;52.018;8.552;2022-12-18T07:42:51;101900.75;;;-8.77;78.49
74633;BME280;63139;52.018;8.552;2022-12-18T07:45:18;101910.97;;;-8.74;78.59
74633;BME280;63139;52.018;8.552;2022-12-18T07:47:46;101911.81;;;-8.72;78.35
74633;BME280;63139;52.018;8.552;2022-12-18T07:50:14;101908.38;;;-8.70;78.50
74633;BME280;63139;52.018;8.552;2022-12-18T07:52:42;101904.06;;;-8.65;78.54
74633;BME280;63139;52.018;8.552;2022-12-18T07:55:11;101902.34;;;-8.63;78.42
74633;BME280;63139;52.018;8.552;2022-12-18T07:57:39;101898.06;;;-8.60;78.65
74633;BME280;63139;52.018;8.552;2022-12-18T08:00:17;101900.56;;;-8.57;78.54
74633;BME280;63139;52.018;8.552;2022-12-18T08:02:46;101906.53;;;-8.54;77.70
74633;BME280;63139;52.018;8.552;2022-12-18T08:05:15;101903.94;;;-8.51;77.78
74633;BME280;63139;52.018;8.552;2022-12-18T08:07:42;101901.38;;;-8.49;77.72
74633;BME280;63139;52.018;8.552;2022-12-18T08:10:11;101897.06;;;-8.46;78.24
74633;BME280;63139;52.018;8.552;2022-12-18T08:12:39;101898.72;;;-8.40;78.12
74633;BME280;63139;52.018;8.552;2022-12-18T08:15:08;101896.16;;;-8.39;78.24
74633;BME280;63139;52.018;8.552;2022-12-18T08:17:35;101884.97;;;-8.35;78.47
74633;BME280;63139;52.018;8.552;2022-12-18T08:20:03;101884.03;;;-8.29;78.57
74633;BME280;63139;52.018;8.552;2022-12-18T08:22:33;101879.72;;;-8.23;78.47
74633;BME280;63139;52.018;8.552;2022-12-18T08:25:04;101876.19;;;-8.14;78.51
74633;BME280;63139;52.018;8.552;2022-12-18T08:27:33;101870.97;;;-8.06;78.34
74633;BME280;63139;52.018;8.552;2022-12-18T08:30:01;101866.59;;;-8.00;78.27
74633;BME280;63139;52.018;8.552;2022-12-18T08:32:29;101864.84;;;-7.93;77.88
74633;BME280;63139;52.018;8.552;2022-12-18T08:34:59;101868.13;;;-7.82;78.36
74633;BME280;63139;52.018;8.552;2022-12-18T08:37:27;101859.47;;;-7.75;78.33
74633;BME280;63139;52.018;8.552;2022-12-18T08:39:54;101861.94;;;-7.67;78.24
74633;BME280;63139;52.018;8.552;2022-12-18T08:42:22;101861.88;;;-7.60;78.36
74633;BME280;63139;52.018;8.552;2022-12-18T08:45:09;101867.75;;;-7.52;78.41
74633;BME280;63139;52.018;8.552;2022-12-18T08:47:37;101868.50;;;-7.43;78.38
74633;BME280;63139;52.018;8.552;2022-12-18T08:50:05;101862.41;;;-7.36;78.59
74633;BME280;63139;52.018;8.552;2022-12-18T08:52:33;101868.31;;;-7.30;79.47
74633;BME280;63139;52.018;8.552;2022-12-18T08:55:01;101862.22;;;-7.23;79.38
74633;BME280;63139;52.018;8.552;2022-12-18T08:57:28;101867.16;;;-7.09;79.45
74633;BME280;63139;52.018;8.552;2022-12-18T08:59:56;101860.19;;;-7.01;79.24
74633;BME280;63139;52.018;8.552;2022-12-18T09:02:25;101858.34;;;-6.91;79.12
74633;BME280;63139;52.018;8.552;2022-12-18T09:04:53;101857.25;;;-6.78;80.06
74633;BME280;63139;52.018;8.552;2022-12-18T09:07:23;101858.72;;;-6.62;79.78
74633;BME280;63139;52.018;8.552;2022-12-18T09:09:50;101852.47;;;-6.49;79.68
74633;BME280;63139;52.018;8.552;2022-12-18T09:12:18;101859.09;;;-6.34;79.25
74633;BME280;63139;52.018;8.552;2022-12-18T09:14:46;101854.50;;;-6.17;79.33
74633;BME280;63139;52.018;8.552;2022-12-18T09:17:14;101855.91;;;-6.01;79.17
74633;BME280;63139;52.018;8.552;2022-12-18T09:19:43;101854.72;;;-5.86;78.73
74633;BME280;63139;52.018;8.552;2022-12-18T09:22:11;101850.09;;;-5.70;78.37
74633;BME280;63139;52.018;8.552;2022-12-18T09:24:38;101854.13;;;-5.57;78.22
74633;BME280;63139;52.018;8.552;2022-12-18T09:27:06;101868.41;;;-5.41;78.40
74633;BME280;63139;52.018;8.552;2022-12-18T09:29:34;101871.47;;;-5.25;78.08
74633;BME280;63139;52.018;8.552;2022-12-18T09:32:02;101863.41;;;-5.10;78.39
74633;BME280;63139;52.018;8.552;2022-12-18T09:34:29;101864.78;;;-4.95;78.08
74633;BME280;63139;52.018;8.552;2022-12-18T09:36:58;101857.66;;;-4.84;78.12
74633;BME280;63139;52.018;8.552;2022-12-18T09:39:26;101853.03;;;-4.72;78.30
74633;BME280;63139;52.018;8.552;2022-12-18T09:41:56;101850.19;;;-4.61;77.88
74633;BME280;63139;52.018;8.552;2022-12-18T09:44:26;101854.34;;;-4.54;77.81
74633;BME280;63139;52.018;8.552;2022-12-18T09:47:03;101856.69;;;-4.45;77.96
74633;BME280;63139;52.018;8.552;2022-12-18T09:49:36;101865.06;;;-4.37;77.83
74633;BME280;63139;52.018;8.552;2022-12-18T09:52:09;101854.41;;;-4.23;77.46
74633;BME280;63139;52.018;8.552;2022-12-18T09:54:40;101853.19;;;-4.10;77.04
74633;BME280;63139;52.018;8.552;2022-12-18T09:57:12;101848.75;;;-4.06;77.04
74633;BME280;63139;52.018;8.552;2022-12-18T09:59:42;101852.97;;;-4.02;77.39
74633;BME280;63139;52.018;8.552;2022-12-18T10:02:17;101856.31;;;-3.99;77.31
74633;BME280;63139;52.018;8.552;2022-12-18T10:04:51;101853.66;;;-3.96;77.42
74633;BME280;63139;52.018;8.552;2022-12-18T10:07:29;101850.16;;;-3.93;77.52
74633;BME280;63139;52.018;8.552;2022-12-18T10:10:07;101850.72;;;-3.83;77.70
74633;BME280;63139;52.018;8.552;2022-12-18T10:12:42;101854.84;;;-3.78;77.55
74633;BME280;63139;52.018;8.552;2022-12-18T10:15:19;101858.22;;;-3.74;77.19
74633;BME280;63139;52.018;8.552;2022-12-18T10:17:51;101856.28;;;-3.66;77.78
74633;BME280;63139;52.018;8.552;2022-12-18T10:20:27;101843.25;;;-3.63;77.55
74633;BME280;63139;52.018;8.552;2022-12-18T10:23:03;101833.38;;;-3.50;78.06
74633;BME280;63139;52.018;8.552;2022-12-18T10:25:50;101818.44;;;-3.41;78.12
74633;BME280;63139;52.018;8.552;2022-12-18T10:28:20;101799.00;;;-3.26;77.74
74633;BME280;63139;52.018;8.552;2022-12-18T10:30:48;101786.59;;;-3.17;78.02
74633;BME280;63139;52.018;8.552;2022-12-18T10:33:18;101782.91;;;-3.09;77.69
74633;BME280;63139;52.018;8.552;2022-12-18T10:35:48;101776.34;;;-2.93;77.21
74633;BME280;63139;52.018;8.552;2022-12-18T10:38:24;101777.63;;;-2.80;77.54
74633;BME280;63139;52.018;8.552;2022-12-18T10:40:55;101771.25;;;-2.70;77.51
74633;BME280;63139;52.018;8.552;2022-12-18T10:43:25;101766.34;;;-2.53;76.47
74633;BME280;63139;52.018;8.552;2022-12-18T10:46:15;101751.84;;;-2.33;76.07
74633;BME280;63139;52.018;8.552;2022-12-18T10:48:51;101769.44;;;-2.18;75.34
74633;BME280;63139;52.018;8.552;2022-12-18T10:51:21;101770.59;;;-2.02;75.08
74633;BME280;63139;52.018;8.552;2022-12-18T10:53:56;101770.91;;;-1.88;75.10
74633;BME280;63139;52.018;8.552;2022-12-18T10:56:26;101767.91;;;-1.77;75.13
74633;BME280;63139;52.018;8.552;2022-12-18T10:58:59;101760.78;;;-1.71;74.73
74633;BME280;63139;52.018;8.552;2022-12-18T11:01:28;101760.47;;;-1.63;74.44
74633;BME280;63139;52.018;8.552;2022-12-18T11:04:01;101750.63;;;-1.55;74.10
74633;BME280;63139;52.018;8.552;2022-12-18T11:06:29;101729.53;;;-1.47;74.28
74633;BME280;63139;52.018;8.552;2022-12-18T11:09:02;101722.38;;;-1.41;74.26
74633;BME280;63139;52.018;8.552;2022-12-18T11:11:38;101729.25;;;-1.40;74.37
74633;BME280;63139;52.018;8.552;2022-12-18T11:14:14;101723.19;;;-1.40;74.04
74633;BME280;63139;52.018;8.552;2022-12-18T11:16:46;101722.31;;;-1.39;73.70
74633;BME280;63139;52.018;8.552;2022-12-18T11:19:36;101717.84;;;-1.36;74.03
74633;BME280;63139;52.018;8.552;2022-12-18T11:22:20;101704.81;;;-1.34;73.16
74633;BME280;63139;52.018;8.552;2022-12-18T11:24:59;101689.13;;;-1.33;72.65
74633;BME280;63139;52.018;8.552;2022-12-18T11:27:48;101689.88;;;-1.29;72.06
74633;BME280;63139;52.018;8.552;2022-12-18T11:30:23;101686.09;;;-1.22;72.26
74633;BME280;63139;52.018;8.552;2022-12-18T11:32:54;101694.44;;;-1.14;72.87
74633;BME280;63139;52.018;8.552;2022-12-18T11:35:32;101683.84;;;-1.09;72.38
74633;BME280;63139;52.018;8.552;2022-12-18T11:38:06;101687.13;;;-1.04;72.10
74633;BME280;63139;52.018;8.552;2022-12-18T11:40:42;101683.19;;;-0.94;72.03
74633;BME280;63139;52.018;8.552;2022-12-18T11:43:15;101685.69;;;-0.91;71.85
74633;BME280;63139;52.018;8.552;2022-12-18T11:45:49;101684.44;;;-0.83;71.83
74633;BME280;63139;52.018;8.552;2022-12-18T11:48:22;101678.97;;;-0.76;70.28
74633;BME280;63139;52.018;8.552;2022-12-18T11:50:52;101669.16;;;-0.70;70.35
74633;BME280;63139;52.018;8.552;2022-12-18T11:53:22;101663.69;;;-0.64;70.27
74633;BME280;63139;52.018;8.552;2022-12-18T11:56:00;101665.03;;;-0.55;70.43
74633;BME280;63139;52.018;8.552;2022-12-18T11:58:42;101667.38;;;-0.49;69.91
74633;BME280;63139;52.018;8.552;2022-12-18T12:01:18;101657.81;;;-0.49;69.27
74633;BME280;63139;52.018;8.552;2022-12-18T12:04:00;101668.09;;;-0.46;69.76
74633;BME280;63139;52.018;8.552;2022-12-18T12:06:38;101652.38;;;-0.44;69.07
74633;BME280;63139;52.018;8.552;2022-12-18T12:09:16;101644.41;;;-0.40;69.39
74633;BME280;63139;52.018;8.552;2022-12-18T12:12:01;101649.44;;;-0.36;69.30
74633;BME280;63139;52.018;8.552;2022-12-18T12:14:46;101646.78;;;-0.35;68.56
74633;BME280;63139;52.018;8.552;2022-12-18T12:17:24;101640.66;;;-0.34;68.69
74633;BME280;63139;52.018;8.552;2022-12-18T12:20:02;101633.66;;;-0.32;69.82
74633;BME280;63139;52.018;8.552;2022-12-18T12:22:39;101620.63;;;-0.32;69.40
74633;BME280;63139;52.018;8.552;2022-12-18T12:25:26;101616.22;;;-0.30;68.74
74633;BME280;63139;52.018;8.552;2022-12-18T12:28:06;101617.88;;;-0.29;68.20
74633;BME280;63139;52.018;8.552;2022-12-18T12:30:40;101607.34;;;-0.26;68.73
74633;BME280;63139;52.018;8.552;2022-12-18T12:33:22;101603.66;;;-0.22;68.58
74633;BME280;63139;52.018;8.552;2022-12-18T12:36:00;101615.69;;;-0.19;68.58
74633;BME280;63139;52.018;8.552;2022-12-18T12:38:33;101615.75;;;-0.21;68.13
74633;BME280;63139;52.018;8.552;2022-12-18T12:41:04;101620.00;;;-0.18;68.39
74633;BME280;63139;52.018;8.552;2022-12-18T12:43:56;101620.91;;;-0.19;68.36
74633;BME280;63139;52.018;8.552;2022-12-18T12:46:25;101618.31;;;-0.19;68.39
74633;BME280;63139;52.018;8.552;2022-12-18T12:48:55;101627.75;;;-0.17;68.73
74633;BME280;63139;52.018;8.552;2022-12-18T12:51:26;101627.75;;;-0.17;68.29
74633;BME280;63139;52.018;8.552;2022-12-18T12:53:57;101626.81;;;-0.16;68.49
74633;BME280;63139;52.018;8.552;2022-12-18T12:56:32;101627.56;;;-0.14;68.21
74633;BME280;63139;52.018;8.552;2022-12-18T12:59:13;101617.94;;;-0.12;67.97
74633;BME280;63139;52.018;8.552;2022-12-18T13:01:51;101624.78;;;-0.09;68.10
74633;BME280;63139;52.018;8.552;2022-12-18T13:04:27;101618.78;;;-0.11;67.51
74633;BME280;63139;52.018;8.552;2022-12-18T13:07:02;101603.13;;;-0.10;67.85
74633;BME280;63139;52.018;8.552;2022-12-18T13:09:33;101601.19;;;-0.06;67.89
74633;BME280;63139;52.018;8.552;2022-12-18T13:12:05;101594.09;;;-0.03;68.25